sensor_id;sensor_type;location;lat;lon;timestamp;P1;durP1;ratioP1;P2;durP2;ratioP2
40314;SDS011;26021;45.640;11.302;2023-07-31T00:01:13;4.85;;;4.45;;
40314;SDS011;26021;45.640;11.302;2023-07-31T00:03:39;4.72;;;4.25;;
40314;SDS011;26021;45.640;11.302;2023-07-31T00:06:04;6.50;;;4.50;;
40314;SDS011;26021;45.640;11.302;2023-07-31T00:08:29;4.95;;;4.28;;
40314;SDS011;26021;45.640;11.302;2023-07-31T00:10:55;4.72;;;4.20;;
40314;SDS011;26021;45.640;11.302;2023-07-31T00:13:20;3.80;;;3.50;;
40314;SDS011;26021;45.640;11.302;2023-07-31T00:15:46;6.10;;;4.07;;
40314;SDS011;26021;45.640;11.302;2023-07-31T00:18:11;6.25;;;4.32;;
40314;SDS011;26021;45.640;11.302;2023-07-31T00:20:36;3.80;;;3.45;;
40314;SDS011;26021;45.640;11.302;2023-07-31T00:23:02;6.90;;;4.10;;
40314;SDS011;26021;45.640;11.302;2023-07-31T00:25:27;6.10;;;4.28;;
40314;SDS011;26021;45.640;11.302;2023-07-31T00:27:53;3.92;;;3.63;;
40314;SDS011;26021;45.640;11.302;2023-07-31T00:30:18;7.10;;;4.55;;
40314;SDS011;26021;45.640;11.302;2023-07-31T00:32:43;6.30;;;4.20;;
40314;SDS011;26021;45.640;11.302;2023-07-31T00:35:09;5.28;;;3.97;;
40314;SDS011;26021;45.640;11.302;2023-07-31T00:37:34;4.60;;;4.20;;
40314;SDS011;26021;45.640;11.302;2023-07-31T00:39:59;5.53;;;5.00;;
40314;SDS011;26021;45.640;11.302;2023-07-31T00:42:25;6.22;;;4.15;;
40314;SDS011;26021;45.640;11.302;2023-07-31T00:44:51;8.30;;;4.90;;
40314;SDS011;26021;45.640;11.302;2023-07-31T00:47:16;5.30;;;4.50;;
40314;SDS011;26021;45.640;11.302;2023-07-31T00:49:42;5.50;;;4.15;;
40314;SDS011;26021;45.640;11.302;2023-07-31T00:52:08;4.82;;;4.43;;
40314;SDS011;26021;45.640;11.302;2023-07-31T00:54:34;5.25;;;4.72;;
40314;SDS011;26021;45.640;11.302;2023-07-31T00:56:59;5.70;;;4.65;;
40314;SDS011;26021;45.640;11.302;2023-07-31T00:59:25;4.30;;;4.00;;
40314;SDS011;26021;45.640;11.302;2023-07-31T01:01:50;4.90;;;4.60;;
40314;SDS011;26021;45.640;11.302;2023-07-31T01:04:17;5.60;;;4.88;;
40314;SDS011;26021;45.640;11.302;2023-07-31T01:09:15;5.82;;;4.53;;
40314;SDS011;26021;45.640;11.302;2023-07-31T01:11:53;5.15;;;4.63;;
40314;SDS011;26021;45.640;11.302;2023-07-31T01:14:22;4.90;;;4.43;;
40314;SDS011;26021;45.640;11.302;2023-07-31T01:16:47;4.63;;;4.22;;
40314;SDS011;26021;45.640;11.302;2023-07-31T01:19:14;5.00;;;4.65;;
40314;SDS011;26021;45.640;11.302;2023-07-31T01:27:31;5.72;;;4.60;;
40314;SDS011;26021;45.640;11.302;2023-07-31T01:32:36;5.63;;;4.57;;
40314;SDS011;26021;45.640;11.302;2023-07-31T01:35:04;6.78;;;5.07;;
40314;SDS011;26021;45.640;11.302;2023-07-31T01:37:30;5.60;;;4.80;;
40314;SDS011;26021;45.640;11.302;2023-07-31T01:39:56;4.85;;;4.45;;
40314;SDS011;26021;45.640;11.302;2023-07-31T01:42:21;4.95;;;4.65;;
40314;SDS011;26021;45.640;11.302;2023-07-31T01:44:47;4.80;;;4.32;;
40314;SDS011;26021;45.640;11.302;2023-07-31T01:47:12;7.35;;;4.22;;
40314;SDS011;26021;45.640;11.302;2023-07-31T01:49:37;4.78;;;4.40;;
40314;SDS011;26021;45.640;11.302;2023-07-31T01:52:03;5.40;;;4.88;;
40314;SDS011;26021;45.640;11.302;2023-07-31T01:54:29;4.82;;;4.40;;
40314;SDS011;26021;45.640;11.302;2023-07-31T01:56:54;4.97;;;4.25;;
40314;SDS011;26021;45.640;11.302;2023-07-31T01:59:19;5.63;;;4.95;;
40314;SDS011;26021;45.640;11.302;2023-07-31T02:01:45;5.22;;;4.35;;
40314;SDS011;26021;45.640;11.302;2023-07-31T02:04:10;5.68;;;4.50;;
40314;SDS011;26021;45.640;11.302;2023-07-31T02:06:36;5.10;;;4.60;;
40314;SDS011;26021;45.640;11.302;2023-07-31T02:09:01;7.00;;;4.80;;
40314;SDS011;26021;45.640;11.302;2023-07-31T02:11:28;4.60;;;4.20;;
40314;SDS011;26021;45.640;11.302;2023-07-31T02:13:53;6.22;;;4.68;;
40314;SDS011;26021;45.640;11.302;2023-07-31T02:16:19;7.40;;;4.43;;
40314;SDS011;26021;45.640;11.302;2023-07-31T02:18:44;5.82;;;4.20;;
40314;SDS011;26021;45.640;11.302;2023-07-31T02:21:10;6.88;;;4.82;;
40314;SDS011;26021;45.640;11.302;2023-07-31T02:23:35;5.25;;;4.85;;
40314;SDS011;26021;45.640;11.302;2023-07-31T02:26:00;5.03;;;4.53;;
40314;SDS011;26021;45.640;11.302;2023-07-31T02:28:26;6.00;;;5.50;;
40314;SDS011;26021;45.640;11.302;2023-07-31T02:30:51;5.30;;;4.90;;
40314;SDS011;26021;45.640;11.302;2023-07-31T02:33:17;5.15;;;4.75;;
40314;SDS011;26021;45.640;11.302;2023-07-31T02:35:42;5.22;;;4.78;;
40314;SDS011;26021;45.640;11.302;2023-07-31T02:38:08;6.82;;;4.80;;
40314;SDS011;26021;45.640;11.302;2023-07-31T02:40:33;6.05;;;5.45;;
40314;SDS011;26021;45.640;11.302;2023-07-31T02:42:59;6.57;;;5.38;;
40314;SDS011;26021;45.640;11.302;2023-07-31T02:45:24;6.05;;;5.45;;
40314;SDS011;26021;45.640;11.302;2023-07-31T02:47:49;6.20;;;5.40;;
40314;SDS011;26021;45.640;11.302;2023-07-31T02:50:15;5.63;;;5.13;;
40314;SDS011;26021;45.640;11.302;2023-07-31T02:52:40;7.40;;;5.70;;
40314;SDS011;26021;45.640;11.302;2023-07-31T02:55:06;5.65;;;4.90;;
40314;SDS011;26021;45.640;11.302;2023-07-31T02:57:31;6.63;;;5.47;;
40314;SDS011;26021;45.640;11.302;2023-07-31T02:59:57;6.38;;;5.80;;
40314;SDS011;26021;45.640;11.302;2023-07-31T03:02:22;5.40;;;4.90;;
40314;SDS011;26021;45.640;11.302;2023-07-31T03:04:48;6.45;;;5.85;;
40314;SDS011;26021;45.640;11.302;2023-07-31T03:07:13;7.70;;;5.55;;
40314;SDS011;26021;45.640;11.302;2023-07-31T03:09:38;7.20;;;6.50;;
40314;SDS011;26021;45.640;11.302;2023-07-31T03:12:04;6.90;;;5.25;;
40314;SDS011;26021;45.640;11.302;2023-07-31T03:14:30;7.00;;;5.85;;
40314;SDS011;26021;45.640;11.302;2023-07-31T03:16:55;6.78;;;6.18;;
40314;SDS011;26021;45.640;11.302;2023-07-31T03:19:20;6.43;;;5.88;;
40314;SDS011;26021;45.640;11.302;2023-07-31T03:21:46;7.97;;;6.03;;
40314;SDS011;26021;45.640;11.302;2023-07-31T03:24:11;7.32;;;5.93;;
40314;SDS011;26021;45.640;11.302;2023-07-31T03:26:39;6.85;;;6.05;;
40314;SDS011;26021;45.640;11.302;2023-07-31T03:29:06;7.55;;;5.93;;
40314;SDS011;26021;45.640;11.302;2023-07-31T03:31:32;6.53;;;6.03;;
40314;SDS011;26021;45.640;11.302;2023-07-31T03:33:58;6.25;;;5.75;;
40314;SDS011;26021;45.640;11.302;2023-07-31T03:36:23;7.13;;;5.80;;
40314;SDS011;26021;45.640;11.302;2023-07-31T03:38:48;7.72;;;6.15;;
40314;SDS011;26021;45.640;11.302;2023-07-31T03:41:14;6.65;;;6.15;;
40314;SDS011;26021;45.640;11.302;2023-07-31T03:43:39;5.80;;;5.40;;
40314;SDS011;26021;45.640;11.302;2023-07-31T03:46:05;6.00;;;5.40;;
40314;SDS011;26021;45.640;11.302;2023-07-31T03:48:30;6.97;;;6.05;;
40314;SDS011;26021;45.640;11.302;2023-07-31T03:50:55;6.47;;;5.88;;
40314;SDS011;26021;45.640;11.302;2023-07-31T03:53:21;6.57;;;5.90;;
40314;SDS011;26021;45.640;11.302;2023-07-31T03:55:46;6.47;;;5.80;;
40314;SDS011;26021;45.640;11.302;2023-07-31T03:58:12;6.15;;;5.55;;
40314;SDS011;26021;45.640;11.302;2023-07-31T04:00:37;7.72;;;5.78;;
40314;SDS011;26021;45.640;11.302;2023-07-31T04:03:04;6.22;;;5.65;;
40314;SDS011;26021;45.640;11.302;2023-07-31T04:05:31;5.65;;;5.15;;
40314;SDS011;26021;45.640;11.302;2023-07-31T04:07:57;6.00;;;5.50;;
40314;SDS011;26021;45.640;11.302;2023-07-31T04:10:22;6.28;;;5.68;;
40314;SDS011;26021;45.640;11.302;2023-07-31T04:12:48;5.60;;;5.10;;
40314;SDS011;26021;45.640;11.302;2023-07-31T04:15:13;6.00;;;5.50;;
40314;SDS011;26021;45.640;11.302;2023-07-31T04:17:39;7.20;;;5.03;;
40314;SDS011;26021;45.640;11.302;2023-07-31T04:20:04;5.45;;;5.15;;
40314;SDS011;26021;45.640;11.302;2023-07-31T04:22:30;6.78;;;6.20;;
40314;SDS011;26021;45.640;11.302;2023-07-31T04:24:55;7.90;;;7.20;;
40314;SDS011;26021;45.640;11.302;2023-07-31T04:27:21;7.05;;;6.35;;
40314;SDS011;26021;45.640;11.302;2023-07-31T04:29:46;8.25;;;7.45;;
40314;SDS011;26021;45.640;11.302;2023-07-31T04:32:12;8.07;;;7.38;;
40314;SDS011;26021;45.640;11.302;2023-07-31T04:34:38;6.88;;;6.28;;
40314;SDS011;26021;45.640;11.302;2023-07-31T04:37:03;8.73;;;7.07;;
40314;SDS011;26021;45.640;11.302;2023-07-31T04:39:29;7.35;;;6.78;;
40314;SDS011;26021;45.640;11.302;2023-07-31T04:41:54;8.10;;;7.30;;
40314;SDS011;26021;45.640;11.302;2023-07-31T04:44:20;7.00;;;6.50;;
40314;SDS011;26021;45.640;11.302;2023-07-31T04:46:45;7.32;;;6.70;;
40314;SDS011;26021;45.640;11.302;2023-07-31T04:49:11;9.48;;;7.15;;
40314;SDS011;26021;45.640;11.302;2023-07-31T04:51:36;7.45;;;6.68;;
40314;SDS011;26021;45.640;11.302;2023-07-31T04:54:02;7.88;;;7.10;;
40314;SDS011;26021;45.640;11.302;2023-07-31T04:56:28;7.28;;;6.70;;
40314;SDS011;26021;45.640;11.302;2023-07-31T04:58:53;8.40;;;6.47;;
40314;SDS011;26021;45.640;11.302;2023-07-31T05:01:19;7.60;;;6.00;;
40314;SDS011;26021;45.640;11.302;2023-07-31T05:03:45;7.10;;;6.40;;
40314;SDS011;26021;45.640;11.302;2023-07-31T05:06:10;6.72;;;6.22;;
40314;SDS011;26021;45.640;11.302;2023-07-31T05:08:37;7.57;;;6.68;;
40314;SDS011;26021;45.640;11.302;2023-07-31T05:11:02;6.30;;;5.80;;
40314;SDS011;26021;45.640;11.302;2023-07-31T05:13:28;7.47;;;6.70;;
40314;SDS011;26021;45.640;11.302;2023-07-31T05:15:53;8.15;;;5.93;;
40314;SDS011;26021;45.640;11.302;2023-07-31T05:18:19;7.28;;;6.18;;
40314;SDS011;26021;45.640;11.302;2023-07-31T05:20:44;6.03;;;5.50;;
40314;SDS011;26021;45.640;11.302;2023-07-31T05:23:09;5.93;;;5.25;;
40314;SDS011;26021;45.640;11.302;2023-07-31T05:25:35;5.25;;;4.85;;
40314;SDS011;26021;45.640;11.302;2023-07-31T05:28:00;5.97;;;4.97;;
40314;SDS011;26021;45.640;11.302;2023-07-31T05:30:26;7.80;;;5.28;;
40314;SDS011;26021;45.640;11.302;2023-07-31T05:32:51;4.90;;;4.50;;
40314;SDS011;26021;45.640;11.302;2023-07-31T05:35:17;6.90;;;5.18;;
40314;SDS011;26021;45.640;11.302;2023-07-31T05:37:43;5.40;;;4.97;;
40314;SDS011;26021;45.640;11.302;2023-07-31T05:40:08;5.43;;;4.93;;
40314;SDS011;26021;45.640;11.302;2023-07-31T05:42:34;5.18;;;4.70;;
40314;SDS011;26021;45.640;11.302;2023-07-31T05:45:01;4.95;;;4.55;;
40314;SDS011;26021;45.640;11.302;2023-07-31T05:47:27;5.93;;;4.50;;
40314;SDS011;26021;45.640;11.302;2023-07-31T05:49:52;4.97;;;4.57;;
40314;SDS011;26021;45.640;11.302;2023-07-31T05:52:18;4.80;;;4.38;;
40314;SDS011;26021;45.640;11.302;2023-07-31T05:54:44;5.38;;;4.88;;
40314;SDS011;26021;45.640;11.302;2023-07-31T05:57:11;4.68;;;4.38;;
40314;SDS011;26021;45.640;11.302;2023-07-31T05:59:36;5.07;;;4.47;;
40314;SDS011;26021;45.640;11.302;2023-07-31T06:02:02;5.47;;;4.50;;
40314;SDS011;26021;45.640;11.302;2023-07-31T06:04:27;5.00;;;4.57;;
40314;SDS011;26021;45.640;11.302;2023-07-31T06:06:53;6.15;;;4.55;;
40314;SDS011;26021;45.640;11.302;2023-07-31T06:09:18;6.63;;;4.75;;
40314;SDS011;26021;45.640;11.302;2023-07-31T06:11:45;7.15;;;4.40;;
40314;SDS011;26021;45.640;11.302;2023-07-31T06:14:10;7.25;;;4.35;;
40314;SDS011;26021;45.640;11.302;2023-07-31T06:16:36;5.28;;;4.20;;
40314;SDS011;26021;45.640;11.302;2023-07-31T06:19:01;5.55;;;3.97;;
40314;SDS011;26021;45.640;11.302;2023-07-31T06:21:27;6.30;;;4.32;;
40314;SDS011;26021;45.640;11.302;2023-07-31T06:23:52;4.50;;;4.10;;
40314;SDS011;26021;45.640;11.302;2023-07-31T06:26:18;5.43;;;4.97;;
40314;SDS011;26021;45.640;11.302;2023-07-31T06:28:43;4.50;;;4.10;;
40314;SDS011;26021;45.640;11.302;2023-07-31T06:31:08;4.72;;;4.35;;
40314;SDS011;26021;45.640;11.302;2023-07-31T06:33:34;7.32;;;4.20;;
40314;SDS011;26021;45.640;11.302;2023-07-31T06:36:00;4.50;;;4.20;;
40314;SDS011;26021;45.640;11.302;2023-07-31T06:38:26;4.40;;;4.07;;
40314;SDS011;26021;45.640;11.302;2023-07-31T06:40:52;4.60;;;4.20;;
40314;SDS011;26021;45.640;11.302;2023-07-31T06:43:17;4.50;;;3.88;;
40314;SDS011;26021;45.640;11.302;2023-07-31T06:45:43;5.43;;;3.83;;
40314;SDS011;26021;45.640;11.302;2023-07-31T06:48:09;4.40;;;4.00;;
40314;SDS011;26021;45.640;11.302;2023-07-31T06:50:35;3.85;;;3.55;;
40314;SDS011;26021;45.640;11.302;2023-07-31T06:53:00;3.33;;;3.03;;
40314;SDS011;26021;45.640;11.302;2023-07-31T06:55:26;4.05;;;3.17;;
40314;SDS011;26021;45.640;11.302;2023-07-31T06:57:53;6.28;;;3.15;;
40314;SDS011;26021;45.640;11.302;2023-07-31T07:00:20;3.10;;;2.80;;
40314;SDS011;26021;45.640;11.302;2023-07-31T07:02:46;6.53;;;3.83;;
40314;SDS011;26021;45.640;11.302;2023-07-31T07:05:15;4.57;;;3.50;;
40314;SDS011;26021;45.640;11.302;2023-07-31T07:07:41;3.95;;;3.00;;
40314;SDS011;26021;45.640;11.302;2023-07-31T07:10:07;5.40;;;3.13;;
40314;SDS011;26021;45.640;11.302;2023-07-31T07:12:33;3.72;;;3.35;;
40314;SDS011;26021;45.640;11.302;2023-07-31T07:14:59;3.83;;;1.80;;
40314;SDS011;26021;45.640;11.302;2023-07-31T07:17:25;2.63;;;1.98;;
40314;SDS011;26021;45.640;11.302;2023-07-31T07:19:52;1.80;;;1.70;;
40314;SDS011;26021;45.640;11.302;2023-07-31T07:22:18;1.80;;;1.70;;
40314;SDS011;26021;45.640;11.302;2023-07-31T07:24:43;1.60;;;1.50;;
40314;SDS011;26021;45.640;11.302;2023-07-31T07:27:09;1.50;;;1.40;;
40314;SDS011;26021;45.640;11.302;2023-07-31T07:29:35;1.88;;;1.77;;
40314;SDS011;26021;45.640;11.302;2023-07-31T07:32:01;1.73;;;1.63;;
40314;SDS011;26021;45.640;11.302;2023-07-31T07:34:27;1.77;;;1.67;;
40314;SDS011;26021;45.640;11.302;2023-07-31T07:36:53;3.78;;;1.80;;
40314;SDS011;26021;45.640;11.302;2023-07-31T07:39:19;2.50;;;1.70;;
40314;SDS011;26021;45.640;11.302;2023-07-31T07:41:45;3.22;;;1.80;;
40314;SDS011;26021;45.640;11.302;2023-07-31T07:44:11;1.70;;;1.60;;
40314;SDS011;26021;45.640;11.302;2023-07-31T07:46:36;3.88;;;1.70;;
40314;SDS011;26021;45.640;11.302;2023-07-31T07:49:03;1.80;;;1.70;;
40314;SDS011;26021;45.640;11.302;2023-07-31T07:51:28;1.83;;;1.73;;
40314;SDS011;26021;45.640;11.302;2023-07-31T07:53:55;1.90;;;1.80;;
40314;SDS011;26021;45.640;11.302;2023-07-31T07:56:21;5.65;;;1.92;;
40314;SDS011;26021;45.640;11.302;2023-07-31T07:58:50;1.75;;;1.65;;
40314;SDS011;26021;45.640;11.302;2023-07-31T08:01:15;1.80;;;1.70;;
40314;SDS011;26021;45.640;11.302;2023-07-31T08:03:41;1.80;;;1.70;;
40314;SDS011;26021;45.640;11.302;2023-07-31T08:06:06;2.45;;;2.25;;
40314;SDS011;26021;45.640;11.302;2023-07-31T08:08:34;2.13;;;1.77;;
40314;SDS011;26021;45.640;11.302;2023-07-31T08:11:03;2.97;;;1.80;;
40314;SDS011;26021;45.640;11.302;2023-07-31T08:13:28;2.75;;;2.13;;
40314;SDS011;26021;45.640;11.302;2023-07-31T08:15:54;2.00;;;1.90;;
40314;SDS011;26021;45.640;11.302;2023-07-31T08:18:19;1.80;;;1.70;;
40314;SDS011;26021;45.640;11.302;2023-07-31T08:20:45;2.00;;;1.85;;
40314;SDS011;26021;45.640;11.302;2023-07-31T08:23:10;1.70;;;1.60;;
40314;SDS011;26021;45.640;11.302;2023-07-31T08:25:36;25.27;;;3.65;;
40314;SDS011;26021;45.640;11.302;2023-07-31T08:28:05;31.23;;;5.93;;
40314;SDS011;26021;45.640;11.302;2023-07-31T08:30:31;2.20;;;2.00;;
40314;SDS011;26021;45.640;11.302;2023-07-31T08:32:58;2.22;;;2.03;;
40314;SDS011;26021;45.640;11.302;2023-07-31T08:35:24;1.83;;;1.73;;
40314;SDS011;26021;45.640;11.302;2023-07-31T08:37:50;5.07;;;1.70;;
40314;SDS011;26021;45.640;11.302;2023-07-31T08:40:15;2.30;;;2.10;;
40314;SDS011;26021;45.640;11.302;2023-07-31T08:42:44;2.75;;;2.15;;
40314;SDS011;26021;45.640;11.302;2023-07-31T08:45:13;4.05;;;1.90;;
40314;SDS011;26021;45.640;11.302;2023-07-31T08:47:41;2.28;;;2.08;;
40314;SDS011;26021;45.640;11.302;2023-07-31T08:50:15;3.83;;;1.90;;
40314;SDS011;26021;45.640;11.302;2023-07-31T08:52:41;2.55;;;2.35;;
40314;SDS011;26021;45.640;11.302;2023-07-31T08:55:07;2.90;;;2.10;;
40314;SDS011;26021;45.640;11.302;2023-07-31T08:57:37;2.20;;;2.00;;
40314;SDS011;26021;45.640;11.302;2023-07-31T09:00:06;2.10;;;2.00;;
40314;SDS011;26021;45.640;11.302;2023-07-31T09:02:56;1.92;;;1.83;;
40314;SDS011;26021;45.640;11.302;2023-07-31T09:05:25;2.20;;;2.00;;
40314;SDS011;26021;45.640;11.302;2023-07-31T09:07:51;2.10;;;2.00;;
40314;SDS011;26021;45.640;11.302;2023-07-31T09:10:17;1.90;;;1.80;;
40314;SDS011;26021;45.640;11.302;2023-07-31T09:12:43;2.40;;;2.15;;
40314;SDS011;26021;45.640;11.302;2023-07-31T09:15:10;2.88;;;2.25;;
40314;SDS011;26021;45.640;11.302;2023-07-31T09:17:36;4.10;;;2.10;;
40314;SDS011;26021;45.640;11.302;2023-07-31T09:20:12;2.60;;;2.00;;
40314;SDS011;26021;45.640;11.302;2023-07-31T09:22:39;2.22;;;2.03;;
40314;SDS011;26021;45.640;11.302;2023-07-31T09:25:14;3.22;;;2.20;;
40314;SDS011;26021;45.640;11.302;2023-07-31T09:30:17;3.13;;;1.80;;
40314;SDS011;26021;45.640;11.302;2023-07-31T09:32:46;2.00;;;1.83;;
40314;SDS011;26021;45.640;11.302;2023-07-31T09:35:13;2.00;;;1.90;;
40314;SDS011;26021;45.640;11.302;2023-07-31T09:37:39;2.47;;;1.67;;
40314;SDS011;26021;45.640;11.302;2023-07-31T09:40:04;2.13;;;1.92;;
40314;SDS011;26021;45.640;11.302;2023-07-31T09:42:30;1.90;;;1.80;;
40314;SDS011;26021;45.640;11.302;2023-07-31T09:45:06;3.40;;;1.88;;
40314;SDS011;26021;45.640;11.302;2023-07-31T09:47:33;1.92;;;1.80;;
40314;SDS011;26021;45.640;11.302;2023-07-31T09:49:59;2.00;;;1.90;;
40314;SDS011;26021;45.640;11.302;2023-07-31T09:52:25;1.80;;;1.70;;
40314;SDS011;26021;45.640;11.302;2023-07-31T09:54:52;1.80;;;1.70;;
40314;SDS011;26021;45.640;11.302;2023-07-31T09:57:17;2.47;;;1.85;;
40314;SDS011;26021;45.640;11.302;2023-07-31T09:59:47;2.00;;;1.77;;
40314;SDS011;26021;45.640;11.302;2023-07-31T10:02:15;2.42;;;1.92;;
40314;SDS011;26021;45.640;11.302;2023-07-31T10:04:48;2.67;;;1.95;;
40314;SDS011;26021;45.640;11.302;2023-07-31T10:07:15;2.38;;;1.75;;
40314;SDS011;26021;45.640;11.302;2023-07-31T10:09:43;1.70;;;1.60;;
40314;SDS011;26021;45.640;11.302;2023-07-31T10:12:10;1.88;;;1.75;;
40314;SDS011;26021;45.640;11.302;2023-07-31T10:14:39;3.17;;;1.63;;
40314;SDS011;26021;45.640;11.302;2023-07-31T10:17:07;1.77;;;1.65;;
40314;SDS011;26021;45.640;11.302;2023-07-31T10:19:33;1.40;;;1.40;;
40314;SDS011;26021;45.640;11.302;2023-07-31T10:22:00;1.60;;;1.50;;
40314;SDS011;26021;45.640;11.302;2023-07-31T10:24:27;1.80;;;1.70;;
40314;SDS011;26021;45.640;11.302;2023-07-31T10:26:54;1.92;;;1.67;;
40314;SDS011;26021;45.640;11.302;2023-07-31T10:29:24;1.63;;;1.52;;
40314;SDS011;26021;45.640;11.302;2023-07-31T10:31:51;2.90;;;1.67;;
40314;SDS011;26021;45.640;11.302;2023-07-31T10:34:17;2.13;;;1.88;;
40314;SDS011;26021;45.640;11.302;2023-07-31T10:36:43;1.70;;;1.60;;
40314;SDS011;26021;45.640;11.302;2023-07-31T10:42:00;3.20;;;2.40;;
40314;SDS011;26021;45.640;11.302;2023-07-31T10:44:34;1.73;;;1.50;;
40314;SDS011;26021;45.640;11.302;2023-07-31T10:47:00;2.25;;;1.80;;
40314;SDS011;26021;45.640;11.302;2023-07-31T10:49:27;2.20;;;1.90;;
40314;SDS011;26021;45.640;11.302;2023-07-31T10:51:56;1.83;;;1.73;;
40314;SDS011;26021;45.640;11.302;2023-07-31T10:54:22;1.65;;;1.55;;
40314;SDS011;26021;45.640;11.302;2023-07-31T10:56:50;1.85;;;1.75;;
40314;SDS011;26021;45.640;11.302;2023-07-31T10:59:15;1.90;;;1.80;;
40314;SDS011;26021;45.640;11.302;2023-07-31T11:04:22;1.90;;;1.52;;
40314;SDS011;26021;45.640;11.302;2023-07-31T11:06:58;1.90;;;1.70;;
40314;SDS011;26021;45.640;11.302;2023-07-31T11:09:31;3.03;;;1.92;;
40314;SDS011;26021;45.640;11.302;2023-07-31T11:11:58;1.63;;;1.52;;
40314;SDS011;26021;45.640;11.302;2023-07-31T11:14:24;2.33;;;1.63;;
40314;SDS011;26021;45.640;11.302;2023-07-31T11:16:50;2.40;;;2.13;;
40314;SDS011;26021;45.640;11.302;2023-07-31T11:19:23;3.60;;;2.10;;
40314;SDS011;26021;45.640;11.302;2023-07-31T11:21:50;2.25;;;1.83;;
40314;SDS011;26021;45.640;11.302;2023-07-31T11:24:16;2.25;;;1.70;;
40314;SDS011;26021;45.640;11.302;2023-07-31T11:27:00;4.22;;;1.75;;
40314;SDS011;26021;45.640;11.302;2023-07-31T11:29:32;1.73;;;1.63;;
40314;SDS011;26021;45.640;11.302;2023-07-31T11:31:58;2.10;;;1.70;;
40314;SDS011;26021;45.640;11.302;2023-07-31T11:34:23;3.63;;;2.25;;
40314;SDS011;26021;45.640;11.302;2023-07-31T11:36:54;2.88;;;2.42;;
40314;SDS011;26021;45.640;11.302;2023-07-31T11:39:24;2.35;;;1.88;;
40314;SDS011;26021;45.640;11.302;2023-07-31T11:41:49;2.10;;;1.80;;
40314;SDS011;26021;45.640;11.302;2023-07-31T11:44:14;4.05;;;1.80;;
40314;SDS011;26021;45.640;11.302;2023-07-31T11:46:40;2.03;;;1.92;;
40314;SDS011;26021;45.640;11.302;2023-07-31T11:49:05;2.17;;;1.90;;
40314;SDS011;26021;45.640;11.302;2023-07-31T11:51:31;2.22;;;2.03;;
40314;SDS011;26021;45.640;11.302;2023-07-31T11:53:57;2.65;;;2.30;;
40314;SDS011;26021;45.640;11.302;2023-07-31T11:56:25;2.28;;;2.13;;
40314;SDS011;26021;45.640;11.302;2023-07-31T11:58:55;2.40;;;1.77;;
40314;SDS011;26021;45.640;11.302;2023-07-31T12:01:23;2.35;;;2.00;;
40314;SDS011;26021;45.640;11.302;2023-07-31T12:03:50;3.17;;;2.00;;
40314;SDS011;26021;45.640;11.302;2023-07-31T12:06:16;2.55;;;2.08;;
40314;SDS011;26021;45.640;11.302;2023-07-31T12:08:42;1.98;;;1.83;;
40314;SDS011;26021;45.640;11.302;2023-07-31T12:11:08;2.40;;;2.20;;
40314;SDS011;26021;45.640;11.302;2023-07-31T12:13:34;4.28;;;2.20;;
40314;SDS011;26021;45.640;11.302;2023-07-31T12:16:01;2.05;;;1.83;;
40314;SDS011;26021;45.640;11.302;2023-07-31T12:18:29;3.42;;;2.25;;
40314;SDS011;26021;45.640;11.302;2023-07-31T12:20:59;5.63;;;2.22;;
40314;SDS011;26021;45.640;11.302;2023-07-31T12:23:29;1.95;;;1.83;;
40314;SDS011;26021;45.640;11.302;2023-07-31T12:28:45;13.77;;;2.47;;
40314;SDS011;26021;45.640;11.302;2023-07-31T12:31:13;3.28;;;1.98;;
40314;SDS011;26021;45.640;11.302;2023-07-31T12:33:49;5.05;;;1.80;;
40314;SDS011;26021;45.640;11.302;2023-07-31T12:36:16;5.18;;;2.92;;
40314;SDS011;26021;45.640;11.302;2023-07-31T12:38:43;3.80;;;2.15;;
40314;SDS011;26021;45.640;11.302;2023-07-31T12:41:11;3.40;;;2.00;;
40314;SDS011;26021;45.640;11.302;2023-07-31T12:43:38;2.40;;;1.80;;
40314;SDS011;26021;45.640;11.302;2023-07-31T12:46:05;1.70;;;1.60;;
40314;SDS011;26021;45.640;11.302;2023-07-31T12:48:34;3.00;;;2.10;;
40314;SDS011;26021;45.640;11.302;2023-07-31T12:51:00;3.15;;;1.90;;
40314;SDS011;26021;45.640;11.302;2023-07-31T12:53:26;2.90;;;1.70;;
40314;SDS011;26021;45.640;11.302;2023-07-31T12:55:51;1.70;;;1.60;;
40314;SDS011;26021;45.640;11.302;2023-07-31T12:58:17;2.28;;;2.00;;
40314;SDS011;26021;45.640;11.302;2023-07-31T13:00:42;3.20;;;2.00;;
40314;SDS011;26021;45.640;11.302;2023-07-31T13:03:07;1.90;;;1.67;;
40314;SDS011;26021;45.640;11.302;2023-07-31T13:05:33;4.60;;;1.92;;
40314;SDS011;26021;45.640;11.302;2023-07-31T13:07:59;1.67;;;1.58;;
40314;SDS011;26021;45.640;11.302;2023-07-31T13:10:24;1.83;;;1.70;;
40314;SDS011;26021;45.640;11.302;2023-07-31T13:12:51;2.03;;;1.60;;
40314;SDS011;26021;45.640;11.302;2023-07-31T13:15:17;3.08;;;1.55;;
40314;SDS011;26021;45.640;11.302;2023-07-31T13:17:42;2.40;;;1.67;;
40314;SDS011;26021;45.640;11.302;2023-07-31T13:20:08;2.90;;;1.70;;
40314;SDS011;26021;45.640;11.302;2023-07-31T13:22:34;2.28;;;2.03;;
40314;SDS011;26021;45.640;11.302;2023-07-31T13:24:59;1.60;;;1.50;;
40314;SDS011;26021;45.640;11.302;2023-07-31T13:27:25;2.65;;;1.60;;
40314;SDS011;26021;45.640;11.302;2023-07-31T13:29:51;2.05;;;1.50;;
40314;SDS011;26021;45.640;11.302;2023-07-31T13:32:17;20.60;;;6.00;;
40314;SDS011;26021;45.640;11.302;2023-07-31T13:34:44;1.77;;;1.67;;
40314;SDS011;26021;45.640;11.302;2023-07-31T13:37:10;1.52;;;1.42;;
40314;SDS011;26021;45.640;11.302;2023-07-31T13:39:35;1.83;;;1.73;;
40314;SDS011;26021;45.640;11.302;2023-07-31T13:42:04;3.17;;;2.17;;
40314;SDS011;26021;45.640;11.302;2023-07-31T13:44:40;2.10;;;1.90;;
40314;SDS011;26021;45.640;11.302;2023-07-31T13:47:06;2.00;;;1.67;;
40314;SDS011;26021;45.640;11.302;2023-07-31T13:49:32;4.20;;;2.20;;
40314;SDS011;26021;45.640;11.302;2023-07-31T13:51:59;2.63;;;1.85;;
40314;SDS011;26021;45.640;11.302;2023-07-31T13:54:25;4.43;;;1.83;;
40314;SDS011;26021;45.640;11.302;2023-07-31T13:56:53;2.10;;;1.85;;
40314;SDS011;26021;45.640;11.302;2023-07-31T13:59:19;3.00;;;2.10;;
40314;SDS011;26021;45.640;11.302;2023-07-31T14:01:45;2.13;;;1.63;;
40314;SDS011;26021;45.640;11.302;2023-07-31T14:04:11;4.18;;;1.88;;
40314;SDS011;26021;45.640;11.302;2023-07-31T14:06:37;1.80;;;1.70;;
40314;SDS011;26021;45.640;11.302;2023-07-31T14:09:02;2.78;;;1.80;;
40314;SDS011;26021;45.640;11.302;2023-07-31T14:11:28;2.00;;;1.90;;
40314;SDS011;26021;45.640;11.302;2023-07-31T14:13:55;2.05;;;1.83;;
40314;SDS011;26021;45.640;11.302;2023-07-31T14:16:21;2.25;;;1.90;;
40314;SDS011;26021;45.640;11.302;2023-07-31T14:18:47;3.20;;;1.63;;
40314;SDS011;26021;45.640;11.302;2023-07-31T14:21:12;6.38;;;2.20;;
40314;SDS011;26021;45.640;11.302;2023-07-31T14:23:38;2.92;;;1.80;;
40314;SDS011;26021;45.640;11.302;2023-07-31T14:26:03;2.70;;;1.80;;
40314;SDS011;26021;45.640;11.302;2023-07-31T14:28:29;4.57;;;1.70;;
40314;SDS011;26021;45.640;11.302;2023-07-31T14:30:54;1.90;;;1.80;;
40314;SDS011;26021;45.640;11.302;2023-07-31T14:33:20;1.85;;;1.70;;
40314;SDS011;26021;45.640;11.302;2023-07-31T14:35:45;3.20;;;1.90;;
40314;SDS011;26021;45.640;11.302;2023-07-31T14:38:11;1.50;;;1.48;;
40314;SDS011;26021;45.640;11.302;2023-07-31T14:40:36;1.65;;;1.55;;
40314;SDS011;26021;45.640;11.302;2023-07-31T14:43:03;2.03;;;1.83;;
40314;SDS011;26021;45.640;11.302;2023-07-31T14:45:29;2.88;;;1.50;;
40314;SDS011;26021;45.640;11.302;2023-07-31T14:47:54;1.92;;;1.55;;
40314;SDS011;26021;45.640;11.302;2023-07-31T14:50:20;1.80;;;1.70;;